createdAt,value
2017-11-10T00:00:14.952Z,98092.37
2017-11-10T00:02:42.914Z,98087.45
2017-11-10T00:05:10.473Z,98095.63
2017-11-10T00:07:39.056Z,98094.52
2017-11-10T00:10:06.909Z,98088.56
2017-11-10T00:12:34.481Z,98100.31
2017-11-10T00:15:02.039Z,98098.41
2017-11-10T00:17:30.624Z,98098.27
2017-11-10T00:19:58.139Z,98100.17
2017-11-10T00:22:25.687Z,98097.16
2017-11-10T00:24:53.336Z,98084.59
2017-11-10T00:27:20.867Z,98089.77
2017-11-10T00:29:48.419Z,98079.23
2017-11-10T00:32:16.183Z,98071.52
2017-11-10T00:34:43.700Z,98074.39
2017-11-10T00:37:11.222Z,98075.38
2017-11-10T00:39:38.799Z,98071.25
2017-11-10T00:42:06.934Z,98082.82
2017-11-10T00:44:35.462Z,98076.80
2017-11-10T00:47:04.854Z,98074.00
2017-11-10T00:49:32.396Z,98073.09
2017-11-10T00:51:59.934Z,98076.48
2017-11-10T00:54:28.539Z,98066.94
2017-11-10T00:56:56.063Z,98071.38
2017-11-10T00:59:23.583Z,98063.81
2017-11-10T01:01:51.397Z,98056.78
2017-11-10T01:04:18.958Z,98043.05
2017-11-10T01:06:46.516Z,98036.34
2017-11-10T01:09:14.103Z,98026.97
2017-11-10T01:11:41.634Z,98016.56
2017-11-10T01:14:09.193Z,98004.34
2017-11-10T01:16:37.162Z,97994.14
2017-11-10T01:19:04.728Z,97992.05
2017-11-10T01:21:32.280Z,97995.59
2017-11-10T01:24:00.055Z,97988.66
2017-11-10T01:26:28.407Z,97990.12
2017-11-10T01:28:55.927Z,97993.36
2017-11-10T01:31:23.476Z,97986.27
2017-11-10T01:33:51.040Z,97973.52
2017-11-10T01:36:18.562Z,97956.70
2017-11-10T01:38:46.527Z,97957.57
2017-11-10T01:41:14.085Z,97954.41
2017-11-10T01:43:41.603Z,97949.61
2017-11-10T01:46:09.212Z,97938.50
2017-11-10T01:48:42.703Z,97929.97
2017-11-10T01:51:10.266Z,97935.25
2017-11-10T01:53:37.778Z,97939.28
2017-11-10T01:56:05.299Z,97944.58
2017-11-10T01:58:33.211Z,97943.24
2017-11-10T02:01:00.773Z,97939.21
2017-11-10T02:03:28.291Z,97941.88
2017-11-10T02:05:56.127Z,97940.23
2017-11-10T02:08:23.655Z,97920.63
2017-11-10T02:10:51.180Z,97915.76
2017-11-10T02:13:19.010Z,97914.42
2017-11-10T02:15:46.527Z,97917.33
2017-11-10T02:18:14.040Z,97918.75
2017-11-10T02:20:41.993Z,97934.08
2017-11-10T02:23:09.554Z,97944.39
2017-11-10T02:25:37.113Z,97952.11
2017-11-10T02:28:04.876Z,97963.05
2017-11-10T02:30:32.438Z,97982.46
2017-11-10T02:32:59.995Z,97985.41
2017-11-10T02:35:27.656Z,97987.30
2017-11-10T02:37:55.220Z,97980.42
2017-11-10T02:40:22.775Z,97981.98
2017-11-10T02:42:50.356Z,97988.68
2017-11-10T02:45:17.920Z,97982.20
2017-11-10T02:47:45.440Z,97970.66
2017-11-10T02:50:13.217Z,97966.56
2017-11-10T02:52:40.775Z,97975.83
2017-11-10T02:55:08.336Z,97969.28
2017-11-10T02:57:36.098Z,97983.80
2017-11-10T03:00:03.658Z,97980.19
2017-11-10T03:02:31.216Z,97980.67
2017-11-10T03:04:58.967Z,97979.98
2017-11-10T03:07:26.488Z,97972.16
2017-11-10T03:09:54.013Z,97962.53
2017-11-10T03:12:21.861Z,97965.22
2017-11-10T03:14:49.430Z,97960.52
2017-11-10T03:17:16.987Z,97961.20
2017-11-10T03:19:44.847Z,97957.38
2017-11-10T03:22:12.405Z,97950.53
2017-11-10T03:24:39.974Z,97960.95
2017-11-10T03:27:07.933Z,97958.95
2017-11-10T03:29:35.465Z,97955.15
2017-11-10T03:32:02.976Z,97954.38
2017-11-10T03:34:30.535Z,97947.50
2017-11-10T03:36:58.080Z,97926.92
2017-11-10T03:39:25.632Z,97938.97
2017-11-10T03:41:53.191Z,97927.64
2017-11-10T03:44:20.763Z,97923.92
2017-11-10T03:46:48.304Z,97911.50
2017-11-10T03:49:15.876Z,97914.97
2017-11-10T03:51:43.423Z,97914.43
2017-11-10T03:54:10.982Z,97916.83
2017-11-10T03:56:38.746Z,97911.38
2017-11-10T03:59:06.256Z,97912.09
2017-11-10T04:01:33.770Z,97912.38
2017-11-10T04:04:01.515Z,97892.05
2017-11-10T04:06:29.038Z,97884.41
2017-11-10T04:08:56.555Z,97876.73
2017-11-10T04:11:24.131Z,97878.57
2017-11-10T04:13:51.659Z,97875.20
2017-11-10T04:16:19.217Z,97874.61
2017-11-10T04:18:46.776Z,97872.42
2017-11-10T04:21:14.329Z,97878.64
2017-11-10T04:23:41.939Z,97886.47
2017-11-10T04:26:09.965Z,97887.38
2017-11-10T04:28:37.474Z,97884.77
2017-11-10T04:31:04.991Z,97894.63
2017-11-10T04:33:32.751Z,97905.82
2017-11-10T04:36:00.305Z,97913.62
2017-11-10T04:38:27.864Z,97927.52
2017-11-10T04:40:55.630Z,97939.45
2017-11-10T04:43:24.276Z,97939.10
2017-11-10T04:45:51.893Z,97937.70
2017-11-10T04:48:19.715Z,97922.33
2017-11-10T04:50:47.231Z,97919.63
2017-11-10T04:53:14.755Z,97922.70
2017-11-10T04:55:42.313Z,97928.52
2017-11-10T04:58:09.876Z,97916.74
2017-11-10T05:00:37.432Z,97913.08
2017-11-10T05:03:05.297Z,97905.41
2017-11-10T05:05:32.847Z,97904.64
2017-11-10T05:08:00.368Z,97907.58
2017-11-10T05:10:28.360Z,97897.11
2017-11-10T05:12:55.875Z,97878.80
2017-11-10T05:15:23.400Z,97869.59
2017-11-10T05:17:51.267Z,97865.34
2017-11-10T05:20:19.544Z,97863.66
2017-11-10T05:22:47.102Z,97856.91
2017-11-10T05:25:14.812Z,97847.27
2017-11-10T05:27:42.324Z,97851.41
2017-11-10T05:30:09.883Z,97853.66
2017-11-10T05:32:37.550Z,97852.73
2017-11-10T05:35:05.108Z,97859.90
2017-11-10T05:37:32.663Z,97859.55
2017-11-10T05:40:00.324Z,97853.05
2017-11-10T05:42:28.701Z,97845.44
2017-11-10T05:44:56.251Z,97852.11
2017-11-10T05:47:23.923Z,97848.17
2017-11-10T05:49:51.444Z,97850.05
2017-11-10T05:52:18.961Z,97862.55
2017-11-10T05:54:46.618Z,97869.69
2017-11-10T05:57:14.131Z,97871.42
2017-11-10T05:59:41.651Z,97867.03
2017-11-10T06:02:09.463Z,97856.81
2017-11-10T06:04:36.992Z,97861.36
2017-11-10T06:07:04.532Z,97853.09
2017-11-10T06:09:32.080Z,97849.28
2017-11-10T06:11:59.603Z,97855.47
2017-11-10T06:14:27.124Z,97851.53
2017-11-10T06:16:54.942Z,97860.65
2017-11-10T06:19:22.498Z,97866.52
2017-11-10T06:21:50.011Z,97865.38
2017-11-10T06:24:17.717Z,97866.00
2017-11-10T06:26:45.277Z,97861.63
2017-11-10T06:29:12.827Z,97863.26
2017-11-10T06:31:40.602Z,97855.97
2017-11-10T06:34:08.181Z,97859.88
2017-11-10T06:36:35.719Z,97862.86
2017-11-10T06:39:03.461Z,97855.74
2017-11-10T06:41:30.974Z,97843.10
2017-11-10T06:43:58.500Z,97838.52
2017-11-10T06:46:26.261Z,97828.56
2017-11-10T06:48:53.774Z,97830.53
2017-11-10T06:51:21.296Z,97814.60
2017-11-10T06:53:49.042Z,97819.88
2017-11-10T06:56:16.602Z,97828.31
2017-11-10T06:58:44.159Z,97835.13
2017-11-10T07:01:11.871Z,97843.28
2017-11-10T07:03:39.756Z,97826.97
2017-11-10T07:06:07.284Z,97817.35
2017-11-10T07:08:34.852Z,97825.41
2017-11-10T07:11:02.376Z,97811.65
2017-11-10T07:13:29.924Z,97811.66
2017-11-10T07:15:57.780Z,97811.88
2017-11-10T07:18:25.350Z,97820.66
2017-11-10T07:20:52.909Z,97812.02
2017-11-10T07:23:20.687Z,97814.42
2017-11-10T07:25:48.230Z,97803.59
2017-11-10T07:28:15.796Z,97794.88
2017-11-10T07:30:43.378Z,97814.56
2017-11-10T07:33:10.907Z,97813.20
2017-11-10T07:35:38.421Z,97804.75
2017-11-10T07:38:06.143Z,97802.46
2017-11-10T07:40:33.761Z,97791.84
2017-11-10T07:43:01.277Z,97788.67
2017-11-10T07:45:28.995Z,97794.28
2017-11-10T07:47:56.982Z,97801.75
2017-11-10T07:50:24.495Z,97800.40
2017-11-10T07:52:52.204Z,97794.47
2017-11-10T07:55:19.762Z,97787.69
2017-11-10T07:57:47.320Z,97792.51
2017-11-10T08:00:15.083Z,97792.66
2017-11-10T08:02:42.624Z,97792.48
2017-11-10T08:05:10.202Z,97784.69
2017-11-10T08:07:37.757Z,97783.88
2017-11-10T08:10:05.341Z,97788.30
2017-11-10T08:12:32.885Z,97786.08
2017-11-10T08:15:00.629Z,97788.74
2017-11-10T08:17:28.153Z,97786.45
2017-11-10T08:19:55.689Z,97786.83
2017-11-10T08:22:23.251Z,97788.75
2017-11-10T08:24:50.775Z,97782.50
2017-11-10T08:27:18.287Z,97789.61
2017-11-10T08:29:46.002Z,97790.50
2017-11-10T08:32:13.520Z,97782.63
2017-11-10T08:34:41.071Z,97778.84
2017-11-10T08:37:08.800Z,97777.67
2017-11-10T08:39:36.336Z,97770.33
2017-11-10T08:42:03.895Z,97769.44
2017-11-10T08:44:31.581Z,97770.41
2017-11-10T08:46:59.116Z,97768.57
2017-11-10T08:49:27.188Z,97769.30
2017-11-10T08:51:55.236Z,97771.63
2017-11-10T08:54:22.833Z,97769.70
2017-11-10T08:56:50.381Z,97762.28
2017-11-10T08:59:18.120Z,97753.98
2017-11-10T09:01:45.632Z,97742.00
2017-11-10T09:04:13.157Z,97741.94
2017-11-10T09:06:40.922Z,97737.44
2017-11-10T09:09:08.439Z,97738.45
2017-11-10T09:11:35.963Z,97736.89
2017-11-10T09:14:03.783Z,97738.70
2017-11-10T09:16:31.308Z,97719.45
2017-11-10T09:18:58.827Z,97719.16
2017-11-10T09:21:26.897Z,97716.48
2017-11-10T09:23:54.467Z,97710.91
2017-11-10T09:26:21.987Z,97714.29
2017-11-10T09:28:55.380Z,97714.16
2017-11-10T09:34:37.823Z,97704.67
2017-11-10T09:37:05.340Z,97703.96
2017-11-10T09:39:32.880Z,97707.28
2017-11-10T09:42:06.284Z,97701.01
2017-11-10T09:47:44.659Z,97696.78
2017-11-10T09:50:17.815Z,97698.41
2017-11-10T09:52:56.036Z,97700.84
2017-11-10T09:55:44.160Z,97690.52
2017-11-10T10:01:19.704Z,97696.18
2017-11-10T10:03:47.649Z,97688.65
2017-11-10T10:06:17.963Z,97684.10
2017-11-10T10:08:48.113Z,97678.70
2017-11-10T10:11:23.322Z,97671.92
2017-11-10T10:14:08.517Z,97665.23
2017-11-10T10:20:00.331Z,97643.67
2017-11-10T10:25:25.145Z,97630.59
2017-11-10T10:27:52.657Z,97627.92
2017-11-10T10:30:20.174Z,97618.38
2017-11-10T10:32:48.027Z,97611.44
2017-11-10T10:35:15.540Z,97613.41
2017-11-10T10:37:43.055Z,97604.03
2017-11-10T10:40:10.839Z,97600.29
2017-11-10T10:42:38.355Z,97602.55
2017-11-10T10:45:05.867Z,97598.03
2017-11-10T10:47:33.647Z,97590.69
2017-11-10T10:50:01.188Z,97584.30
2017-11-10T10:52:28.703Z,97572.73
2017-11-10T10:54:56.389Z,97581.78
2017-11-10T10:57:23.907Z,97570.29
2017-11-10T10:59:51.434Z,97565.44
2017-11-10T11:02:19.168Z,97567.39
2017-11-10T11:04:46.731Z,97563.05
2017-11-10T11:07:14.285Z,97560.13
2017-11-10T11:09:42.132Z,97557.59
2017-11-10T11:12:09.648Z,97545.80
2017-11-10T11:14:37.163Z,97542.67
2017-11-10T11:17:04.711Z,97546.23
2017-11-10T11:19:32.236Z,97537.42
2017-11-10T11:21:59.748Z,97540.13
2017-11-10T11:24:27.315Z,97529.27
2017-11-10T11:26:54.851Z,97527.24
2017-11-10T11:29:22.367Z,97521.64
2017-11-10T11:31:50.155Z,97515.04
2017-11-10T11:34:17.668Z,97514.55
2017-11-10T11:36:45.190Z,97500.19
2017-11-10T11:39:12.941Z,97494.87
2017-11-10T11:41:40.451Z,97492.58
2017-11-10T11:44:07.962Z,97484.38
2017-11-10T11:46:35.509Z,97480.34
2017-11-10T11:49:03.027Z,97485.98
2017-11-10T11:51:30.568Z,97482.02
2017-11-10T11:53:58.396Z,97468.05
2017-11-10T11:56:25.920Z,97471.37
2017-11-10T11:58:53.480Z,97469.30
2017-11-10T12:01:21.120Z,97466.14
2017-11-10T12:03:48.653Z,97465.22
2017-11-10T12:06:16.172Z,97463.47
2017-11-10T12:08:43.957Z,97460.34
2017-11-10T12:11:11.476Z,97460.26
2017-11-10T12:13:39.042Z,97457.67
2017-11-10T12:16:06.771Z,97448.83
2017-11-10T12:18:34.318Z,97452.27
2017-11-10T12:21:01.878Z,97456.07
2017-11-10T12:23:29.622Z,97449.31
2017-11-10T12:25:57.147Z,97437.86
2017-11-10T12:28:24.667Z,97436.35
2017-11-10T12:30:52.227Z,97437.08
2017-11-10T12:33:19.878Z,97427.69
2017-11-10T12:35:47.420Z,97429.84
2017-11-10T12:38:15.077Z,97435.27
2017-11-10T12:40:42.591Z,97433.21
2017-11-10T12:43:10.114Z,97429.91
2017-11-10T12:45:37.854Z,97433.10
2017-11-10T12:48:05.438Z,97431.36
2017-11-10T12:50:32.952Z,97429.71
2017-11-10T12:53:00.965Z,97435.00
2017-11-10T12:55:28.526Z,97434.96
2017-11-10T12:57:56.044Z,97434.41
2017-11-10T13:00:23.755Z,97427.88
2017-11-10T13:02:51.305Z,97432.73
2017-11-10T13:05:18.825Z,97431.23
2017-11-10T13:07:46.526Z,97418.81
2017-11-10T13:10:14.291Z,97421.98
2017-11-10T13:12:41.847Z,97412.12
2017-11-10T13:15:09.397Z,97421.20
2017-11-10T13:17:36.968Z,97415.67
2017-11-10T13:20:04.532Z,97408.66
2017-11-10T13:22:32.409Z,97413.83
2017-11-10T13:25:00.361Z,97401.88
2017-11-10T13:27:28.021Z,97403.03
2017-11-10T13:29:56.032Z,97394.05
2017-11-10T13:32:23.553Z,97403.13
2017-11-10T13:34:51.101Z,97390.31
2017-11-10T13:37:19.077Z,97390.45
2017-11-10T13:39:46.595Z,97387.04
2017-11-10T13:42:14.176Z,97382.92
2017-11-10T13:44:42.040Z,97373.86
2017-11-10T13:47:10.211Z,97375.16
2017-11-10T13:49:37.984Z,97374.19
2017-11-10T13:52:05.753Z,97375.56
2017-11-10T13:54:33.272Z,97376.91
2017-11-10T13:57:01.030Z,97387.67
2017-11-10T13:59:28.908Z,97382.84
2017-11-10T14:01:56.578Z,97380.67
2017-11-10T14:04:24.099Z,97377.94
2017-11-10T14:06:51.659Z,97373.09
2017-11-10T14:09:19.190Z,97368.67
2017-11-10T14:11:46.741Z,97369.44
2017-11-10T14:14:14.359Z,97373.92
2017-11-10T14:16:42.071Z,97365.33
2017-11-10T14:19:09.650Z,97359.38
2017-11-10T14:21:37.572Z,97358.90
2017-11-10T14:24:05.084Z,97354.63
2017-11-10T14:26:32.591Z,97353.49
2017-11-10T14:29:00.399Z,97346.94
2017-11-10T14:31:27.984Z,97347.56
2017-11-10T14:33:55.496Z,97340.73
2017-11-10T14:36:23.351Z,97342.75
2017-11-10T14:38:51.845Z,97342.58
2017-11-10T14:41:19.402Z,97337.94
2017-11-10T14:43:47.161Z,97345.86
2017-11-10T14:46:15.966Z,97344.23
2017-11-10T14:48:43.513Z,97347.49
2017-11-10T14:51:11.709Z,97348.56
2017-11-10T14:53:39.553Z,97339.31
2017-11-10T14:56:07.214Z,97332.56
2017-11-10T14:58:34.931Z,97335.80
2017-11-10T15:01:03.126Z,97327.98
2017-11-10T15:03:30.794Z,97331.69
2017-11-10T15:05:58.782Z,97332.97
2017-11-10T15:08:26.321Z,97332.62
2017-11-10T15:10:53.834Z,97344.17
2017-11-10T15:13:21.809Z,97343.02
2017-11-10T15:15:49.757Z,97341.13
2017-11-10T15:18:17.500Z,97343.09
2017-11-10T15:20:45.181Z,97341.63
2017-11-10T15:23:13.026Z,97347.16
2017-11-10T15:25:40.790Z,97345.59
2017-11-10T15:28:08.574Z,97345.48
2017-11-10T15:30:36.162Z,97337.94
2017-11-10T15:33:03.672Z,97337.79
2017-11-10T15:35:31.358Z,97343.23
2017-11-10T15:37:58.919Z,97338.41
2017-11-10T15:40:26.658Z,97336.56
2017-11-10T15:42:54.529Z,97333.88
2017-11-10T15:45:22.288Z,97331.99
2017-11-10T15:47:49.898Z,97322.59
2017-11-10T15:50:17.763Z,97322.38
2017-11-10T15:52:45.576Z,97319.28
2017-11-10T15:55:13.141Z,97316.72
2017-11-10T15:57:41.314Z,97305.58
2017-11-10T16:00:08.850Z,97313.81
2017-11-10T16:02:36.532Z,97312.17
2017-11-10T16:05:04.604Z,97302.20
2017-11-10T16:07:32.266Z,97309.57
2017-11-10T16:09:59.927Z,97314.43
2017-11-10T16:12:27.588Z,97316.55
2017-11-10T16:14:55.157Z,97324.70
2017-11-10T16:17:22.750Z,97313.98
2017-11-10T16:19:50.753Z,97321.31
2017-11-10T16:22:18.430Z,97310.84
2017-11-10T16:24:46.115Z,97317.27
2017-11-10T16:27:14.272Z,97310.55
2017-11-10T16:29:41.866Z,97318.18
2017-11-10T16:32:09.698Z,97315.69
2017-11-10T16:34:37.975Z,97315.66
2017-11-10T16:37:05.568Z,97315.14
2017-11-10T16:39:33.302Z,97314.47
2017-11-10T16:42:01.062Z,97311.39
2017-11-10T16:44:28.571Z,97325.33
2017-11-10T16:46:56.275Z,97317.25
2017-11-10T16:49:23.848Z,97324.98
2017-11-10T16:51:51.350Z,97326.27
2017-11-10T16:54:18.876Z,97316.24
2017-11-10T16:56:46.824Z,97324.90
2017-11-10T16:59:14.385Z,97325.09
2017-11-10T17:01:41.999Z,97315.74
2017-11-10T17:04:09.896Z,97323.90
2017-11-10T17:06:37.425Z,97315.25
2017-11-10T17:09:04.975Z,97318.53
2017-11-10T17:11:32.903Z,97323.23
2017-11-10T17:14:00.455Z,97327.94
2017-11-10T17:16:28.220Z,97326.84
2017-11-10T17:18:56.146Z,97329.36
2017-11-10T17:21:23.655Z,97336.86
2017-11-10T17:23:51.244Z,97333.69
2017-11-10T17:26:18.871Z,97336.59
2017-11-10T17:28:46.492Z,97340.80
2017-11-10T17:31:14.007Z,97341.58
2017-11-10T17:33:41.748Z,97336.09
2017-11-10T17:36:09.505Z,97335.11
2017-11-10T17:38:37.015Z,97332.05
2017-11-10T17:41:05.146Z,97335.20
2017-11-10T17:43:32.905Z,97352.17
2017-11-10T17:46:00.669Z,97343.31
2017-11-10T17:48:28.641Z,97347.58
2017-11-10T17:50:56.224Z,97345.02
2017-11-10T17:53:23.962Z,97345.19
2017-11-10T17:55:52.179Z,97343.67
2017-11-10T17:58:20.103Z,97344.73
2017-11-10T18:00:47.693Z,97348.63
2017-11-10T18:03:15.517Z,97344.59
2017-11-10T18:05:43.311Z,97353.23
2017-11-10T18:08:11.160Z,97346.76
2017-11-10T18:10:38.997Z,97352.86
2017-11-10T18:13:06.891Z,97357.30
2017-11-10T18:15:35.583Z,97350.50
2017-11-10T18:18:03.647Z,97346.19
2017-11-10T18:20:31.207Z,97349.50
2017-11-10T18:22:58.870Z,97347.31
2017-11-10T18:25:26.639Z,97339.44
2017-11-10T18:27:55.009Z,97335.33
2017-11-10T18:30:22.981Z,97341.98
2017-11-10T18:32:51.153Z,97341.92
2017-11-10T18:35:18.815Z,97357.98
2017-11-10T18:37:46.375Z,97349.37
2017-11-10T18:40:14.034Z,97352.53
2017-11-10T18:42:41.572Z,97342.23
2017-11-10T18:45:09.088Z,97344.28
2017-11-10T18:47:37.431Z,97342.08
2017-11-10T18:50:05.093Z,97332.30
2017-11-10T18:52:36.758Z,97343.09
2017-11-10T18:55:04.349Z,97341.75
2017-11-10T18:57:32.991Z,97336.75
2017-11-10T19:00:00.763Z,97329.51
2017-11-10T19:02:28.314Z,97336.69
2017-11-10T19:04:55.825Z,97321.66
2017-11-10T19:07:23.741Z,97325.64
2017-11-10T19:09:51.483Z,97328.29
2017-11-10T19:12:19.036Z,97322.39
2017-11-10T19:14:46.661Z,97322.19
2017-11-10T19:17:14.286Z,97320.98
2017-11-10T19:19:41.844Z,97316.97
2017-11-10T19:22:09.745Z,97322.61
2017-11-10T19:24:37.724Z,97331.33
2017-11-10T19:27:05.527Z,97334.95
2017-11-10T19:29:33.718Z,97339.73
2017-11-10T19:32:01.272Z,97336.50
2017-11-10T19:34:29.147Z,97324.80
2017-11-10T19:36:57.008Z,97334.06
2017-11-10T19:39:24.669Z,97329.28
2017-11-10T19:41:52.743Z,97317.54
2017-11-10T19:44:20.783Z,97320.56
2017-11-10T19:46:50.084Z,97329.58
2017-11-10T19:49:17.937Z,97328.44
2017-11-10T19:51:47.074Z,97325.48
2017-11-10T19:54:14.977Z,97319.66
2017-11-10T19:56:42.837Z,97320.50
2017-11-10T19:59:11.441Z,97335.92
2017-11-10T20:01:39.262Z,97327.16
2017-11-10T20:04:07.097Z,97328.98
2017-11-10T20:06:34.889Z,97335.75
2017-11-10T20:09:02.724Z,97343.13
2017-11-10T20:11:30.415Z,97341.59
2017-11-10T20:13:58.588Z,97351.30
2017-11-10T20:16:27.318Z,97351.00
2017-11-10T20:18:55.985Z,97351.98
2017-11-10T20:21:23.990Z,97362.00
2017-11-10T20:23:52.646Z,97356.06
2017-11-10T20:26:20.524Z,97361.06
2017-11-10T20:28:48.890Z,97368.59
2017-11-10T20:31:16.826Z,97361.78
2017-11-10T20:33:44.604Z,97363.04
2017-11-10T20:36:12.800Z,97369.11
2017-11-10T20:38:40.769Z,97370.08
2017-11-10T20:41:08.700Z,97371.11
2017-11-10T20:43:36.322Z,97372.47
2017-11-10T20:46:04.027Z,97369.95
2017-11-10T20:48:32.012Z,97370.08
2017-11-10T20:51:00.238Z,97360.84
2017-11-10T20:53:28.237Z,97366.06
2017-11-10T20:55:56.616Z,97378.32
2017-11-10T20:58:24.487Z,97371.94
2017-11-10T21:00:52.245Z,97371.77
2017-11-10T21:03:20.035Z,97370.33
2017-11-10T21:05:48.012Z,97380.08
2017-11-10T21:08:15.952Z,97373.16
2017-11-10T21:10:43.714Z,97371.05
2017-11-10T21:13:12.643Z,97373.66
2017-11-10T21:15:40.703Z,97372.17
2017-11-10T21:18:08.539Z,97380.08
2017-11-10T21:20:36.656Z,97378.58
2017-11-10T21:23:05.092Z,97381.73
2017-11-10T21:25:32.961Z,97383.38
2017-11-10T21:28:01.027Z,97377.18
2017-11-10T21:30:28.690Z,97374.19
2017-11-10T21:32:56.556Z,97366.61
2017-11-10T21:35:24.528Z,97368.33
2017-11-10T21:37:52.406Z,97367.55
2017-11-10T21:40:20.259Z,97366.91
2017-11-10T21:42:48.227Z,97370.30
2017-11-10T21:45:16.329Z,97370.52
2017-11-10T21:47:44.169Z,97368.72
2017-11-10T21:50:12.162Z,97376.92
2017-11-10T21:52:40.041Z,97376.41
2017-11-10T21:55:07.873Z,97368.11
2017-11-10T21:57:35.630Z,97381.98
2017-11-10T22:00:03.280Z,97383.12
2017-11-10T22:02:30.952Z,97384.22
2017-11-10T22:04:58.820Z,97378.97
2017-11-10T22:07:26.377Z,97385.41
2017-11-10T22:09:54.243Z,97389.77
2017-11-10T22:12:22.015Z,97393.82
2017-11-10T22:14:49.671Z,97387.51
2017-11-10T22:17:17.434Z,97392.16
2017-11-10T22:19:45.519Z,97388.70
2017-11-10T22:22:13.782Z,97394.50
2017-11-10T22:24:41.544Z,97396.38
2017-11-10T22:27:09.883Z,97393.49
2017-11-10T22:29:37.790Z,97401.61
2017-11-10T22:32:05.452Z,97397.31
2017-11-10T22:34:33.203Z,97397.64
2017-11-10T22:37:02.217Z,97403.56
2017-11-10T22:39:29.762Z,97405.80
2017-11-10T22:41:57.636Z,97412.03
2017-11-10T22:44:25.398Z,97418.34
2017-11-10T22:46:53.013Z,97415.91
2017-11-10T22:49:21.131Z,97413.03
2017-11-10T22:51:49.376Z,97414.06
2017-11-10T22:54:17.067Z,97412.06
2017-11-10T22:56:46.369Z,97413.64
2017-11-10T22:59:14.997Z,97417.31
2017-11-10T23:01:42.919Z,97424.31
2017-11-10T23:04:11.027Z,97434.08
2017-11-10T23:06:38.960Z,97422.27
2017-11-10T23:09:07.337Z,97424.30
2017-11-10T23:11:35.099Z,97425.96
2017-11-10T23:14:02.661Z,97437.46
2017-11-10T23:16:30.425Z,97429.45
2017-11-10T23:18:58.394Z,97431.96
2017-11-10T23:21:25.912Z,97432.92
2017-11-10T23:23:53.438Z,97445.55
2017-11-10T23:26:21.072Z,97437.30
2017-11-10T23:28:48.629Z,97447.64
2017-11-10T23:31:16.188Z,97443.89
2017-11-10T23:33:43.760Z,97439.46
2017-11-10T23:36:11.304Z,97433.52
2017-11-10T23:38:38.881Z,97444.77
2017-11-10T23:41:06.640Z,97437.61
2017-11-10T23:43:34.177Z,97437.31
2017-11-10T23:46:01.693Z,97439.70
2017-11-10T23:48:29.354Z,97447.57
2017-11-10T23:50:56.970Z,97449.40
2017-11-10T23:53:24.529Z,97446.57
2017-11-10T23:55:52.147Z,97442.73
2017-11-10T23:58:19.688Z,97442.98
